Albany, New York
Traffic Map
Current Weather Conditions
Albany, New York
Overcast
Overcast
80°
Feels Like: 82°
Wind Chill: 80° Ceiling: 26000
Heat Index: 82° Visibility: 10mi
Dew Point: 64° Wind: 3mph
Humidity: 58% Direction: 230° (SW)
Pressure: 29.93in Gusts: 0mph
Raw Report DataKALB 281351Z 23003KT 10SM OVC260 27/18 A2993 RMK AO2 SLP131 T02670178
Traffic Incident Summary
Active as of:
Severity:
Category:
InformationThere was an issue retrieving the traffic information for this location. Please try a different location or try again shortly.
Advertisements
Track Severe Weather on mobile